Flight Track Log - Related Links

Times and Time Zones

All times are in EDT time to prevent confusion due to time zone crossing. See the SWA267 flight status page for this flight to view local times or setup timezone preferences in your user account.

Time Position Orientation Groundspeed Altitude Reporting Facility
EDT Latitude Longitude Course Direction KTS MPH feet Rate Location/Type
Thu 04:04:13 PM 33.4333 -112.0333 268° West 158 182 2,100  Level Phoenix TRACON
Thu 04:05:18 PM 33.4319 -112.0875 268° West 181 208 4,200 2,551 Climbing Albuquerque Center
Thu 04:06:20 PM 33.4350 -112.1650 273° West 225 259 7,500 3,532 Climbing Albuquerque Center
Thu 04:07:22 PM 33.5136 -112.1908 345° North 290 334 11,500 3,339 Climbing Albuquerque Center
Thu 04:08:24 PM 33.5947 -112.1394 28° Northeast 335 386 14,400 2,855 Climbing Albuquerque Center
Thu 04:09:26 PM 33.6769 -112.0664 36° Northeast 363 418 17,400 2,806 Climbing Albuquerque Center
Thu 04:10:28 PM 33.7767 -111.9767 37° Northeast 394 453 20,200 2,516 Climbing Albuquerque Center
Thu 04:11:30 PM 33.8678 -111.8944 37° Northeast 408 470 22,600 2,129 Climbing Albuquerque Center
Thu 04:12:32 PM 33.9772 -111.8725 North 406 467 24,600 2,032 Climbing Albuquerque Center
Thu 04:13:34 PM 34.0992 -111.8894 353° North 409 471 26,800 1,839 Climbing Albuquerque Center
Thu 04:14:36 PM 34.2172 -111.9044 354° North 424 488 28,400 2,032 Climbing Albuquerque Center
Thu 04:15:38 PM 34.3467 -111.9231 353° North 440 506 31,000 1,742 Climbing Albuquerque Center
Thu 04:16:40 PM 34.4628 -111.9400 353° North 427 491 32,000 484 Climbing Albuquerque Center
Thu 04:17:42 PM 34.5797 -111.9564 353° North 423 487 32,000  Level Albuquerque Center
Thu 04:18:44 PM 34.6969 -111.9725 354° North 423 487 32,000 242 Level Albuquerque Center
Thu 04:19:46 PM 34.8217 -111.9900 353° North 424 488 32,500 726 Climbing Albuquerque Center
Thu 04:20:48 PM 34.9375 -112.0044 354° North 422 486 33,500 726 Climbing Albuquerque Center
Thu 04:21:50 PM 35.0522 -112.0206 353° North 419 482 34,000 242 Climbing Albuquerque Center
Thu 04:22:52 PM 35.1889 -112.0400 353° North 417 480 34,000  Level Albuquerque Center
Thu 04:23:54 PM 35.3044 -112.0558 354° North 419 482 34,000  Level Albuquerque Center
Thu 04:24:56 PM 35.4194 -112.0706 354° North 419 482 34,000  Level Albuquerque Center
Thu 04:25:58 PM 35.5336 -112.0867 353° North 418 481 34,000  Level Albuquerque Center
Thu 04:26:57 PM 35.6492 -112.1033 353° North 421 484 34,000  Level Los Angeles Center
Thu 04:27:59 PM 35.7622 -112.1181 354° North 417 480 34,000  Level Los Angeles Center
Thu 04:29:01 PM 35.8981 -112.1364 354° North 413 475 34,000  Level Los Angeles Center
Thu 04:30:03 PM 36.0103 -112.1508 354° North 411 473 34,000  Level Los Angeles Center
Thu 04:31:05 PM 36.1261 -112.1608 356° North 417 480 34,000  Level Los Angeles Center
Thu 04:32:08 PM 36.2467 -112.1708 356° North 421 484 34,000  Level Los Angeles Center
Thu 04:33:10 PM 36.3633 -112.1814 356° North 421 484 34,000  Level Los Angeles Center
Thu 04:34:12 PM 36.5033 -112.1936 356° North 420 483 34,000  Level Los Angeles Center
Thu 04:35:14 PM 36.6200 -112.2056 355° North 421 484 34,000  Level Los Angeles Center
Thu 04:36:16 PM 36.7356 -112.2156 356° North 417 480 34,000  Level Los Angeles Center
Thu 04:37:18 PM 36.8497 -112.2253 356° North 414 476 34,000  Level Los Angeles Center
Thu 04:38:20 PM 36.9653 -112.2358 356° North 415 478 34,000  Level Los Angeles Center
Thu 04:39:22 PM 37.0797 -112.2469 356° North 415 478 34,000  Level Los Angeles Center
Thu 04:40:24 PM 37.2175 -112.2600 356° North 415 478 34,000  Level Los Angeles Center
Thu 04:41:27 PM 37.3333 -112.2706 356° North 418 481 34,000  Level Los Angeles Center
Thu 04:42:00 PM 37.4031 -112.2775 355° North 419 482 34,000  Level Salt Lake Center
Thu 04:43:02 PM 37.5197 -112.2881 356° North 423 487 34,000  Level Salt Lake Center
Thu 04:44:03 PM 37.6364 -112.2986 356° North 424 488 34,000  Level Salt Lake Center
Thu 04:45:05 PM 37.7525 -112.2958 North 423 487 34,000  Level Salt Lake Center
Thu 04:46:07 PM 37.8692 -112.2789 North 425 489 34,000  Level Salt Lake Center
Thu 04:47:08 PM 38.0069 -112.2608 North 419 482 34,000  Level Salt Lake Center
Thu 04:48:10 PM 38.1211 -112.2450 North 417 480 34,000  Level Salt Lake Center
Thu 04:49:12 PM 38.2356 -112.2278 North 415 478 34,000 -48 Level Salt Lake Center
Thu 04:50:14 PM 38.3508 -112.2117 North 417 480 33,900 -537 Descending Salt Lake Center
Thu 04:51:15 PM 38.4656 -112.1964 North 417 480 32,900 -927 Descending Salt Lake Center
Thu 04:52:17 PM 38.5806 -112.1819 North 416 479 32,000 -435 Descending Salt Lake Center
Thu 04:53:19 PM 38.6914 -112.1661 North 403 464 32,000  Level Salt Lake Center
Thu 04:54:20 PM 38.8272 -112.1467 North 407 468 32,000  Level Salt Lake Center
Thu 04:55:22 PM 38.9406 -112.1317 North 409 471 32,000  Level Salt Lake Center
Thu 04:56:24 PM 39.0531 -112.1158 North 406 467 32,000 -1,024 Level Salt Lake Center
Thu 04:57:25 PM 39.1658 -112.1000 North 407 468 29,900 -2,195 Descending Salt Lake Center
Thu 04:58:27 PM 39.2797 -112.0850 North 404 465 27,500 -2,226 Descending Salt Lake Center
Thu 04:59:29 PM 39.3875 -112.0686 North 392 451 25,300 -2,098 Descending Salt Lake Center
Thu 05:00:30 PM 39.4925 -112.0531 North 384 442 23,200 -2,195 Descending Salt Lake Center
Thu 05:01:32 PM 39.6119 -112.0367 North 365 420 20,800 -2,081 Descending Salt Lake Center
Thu 05:02:34 PM 39.7056 -112.0233 North 347 399 18,900 -1,742 Descending Salt Lake Center
Thu 05:03:36 PM 39.7983 -112.0094 North 338 389 17,200 -1,864 Descending Salt Lake Center
Thu 05:04:17 PM 39.8633 -112.0108 359° North 328 377 15,700 -1,770 Descending Salt Lake Center
Thu 05:04:37 PM 39.8853 -111.9969 26° Northeast 321 369 15,400 -575 Descending Salt Lake Center
Thu 05:05:30 PM 39.9639 -111.9967 360° North 304 350 15,000 -947 Descending Salt Lake Center
Thu 05:06:31 PM 40.0497 -111.9844 North 296 341 13,600 -1,173 Descending Salt Lake Center
Thu 05:07:43 PM 40.1306 -111.9639 11° North 286 329 12,400 -1,377 Descending Salt Lake Center
Thu 05:08:33 PM 40.2083 -111.9592 North 287 330 10,800 -1,314 Descending Salt Lake Center
Thu 05:09:28 PM 40.2836 -111.9478 North 298 343 10,100 -740 Descending Salt Lake Center
Thu 05:09:46 PM 40.3072 -111.9397 15° North 291 335 9,900  Descending Salt Lake Center
Thu 05:10:28 PM 40.3633 -111.9378 North 288 331 10,100 97 Climbing Salt Lake Center
Thu 05:10:48 PM 40.3864 -111.9294 15° North 286 329 10,000 -393 Descending Salt Lake Center
Thu 05:11:29 PM 40.4411 -111.9283 North 280 322 9,700 -677 Descending Salt Lake Center
Thu 05:11:50 PM 40.4639 -111.9244 North 280 322 9,300 -689 Descending Salt Lake Center
Thu 05:12:30 PM 40.5142 -111.9372 349° North 254 292 9,000 -484 Descending Salt Lake Center
Thu 05:12:52 PM 40.5336 -111.9350 North 256 295 8,800 -896 Descending Salt Lake Center
Thu 05:13:37 PM 40.5864 -111.9439 353° North 230 265 8,000 -1,082 Descending Salt Lake Center
Thu 05:13:53 PM 40.5964 -111.9419 North 230 265 7,700 -1,200 Descending Salt Lake Center
Thu 05:14:37 PM 40.6481 -111.9511 352° North 223 257 6,800 -1,065 Descending Salt Lake Center
Thu 05:14:55 PM 40.6575 -111.9492 North 221 254 6,600 -982 Descending Salt Lake Center
Thu 05:15:32 PM 40.6967 -111.9572 351° North 190 219 5,900 -1,161 Descending Salt Lake Center
Thu 05:15:57 PM 40.7150 -111.9558 North 171 197 5,400 -984 Descending Salt Lake Center
Thu 05:16:33 PM 40.7367 -111.9633 345° North 148 170 4,900 -774 Descending Salt Lake Center
Thu 05:16:59 PM 40.7531 -111.9631 North 141 162 4,600 -477 Descending Salt Lake Center
Thu 05:18:01 PM 40.7908 -111.9614 North 135 155 4,200 -387 Descending Salt Lake Center

Login

Don't have an account? Register now (free) for customized features, flight alerts, and more!